Αρχική σελίδα
METAR-TAF:

METAR-TAF

Αεροδρόμια :

Χαρτούμ, Σουδάν

γεωγραφικό πλάτος: 15-36N, γεωγραφικό μήκος: 032-33E, υψόμετρο: 382 μ

Παρών καιρός

Η αναφορά έγινε 21 λεπτά πριν, στις 00:00 UTC
Άνεμος 9 kt από Β/BΔ
Θερμοκρασία 20°C
Υγρασία 26%
Πίεση 1017 hPa
Ορατότητα 10 χλμ και άνω
Δεν υπάρχουν νέφη με βάση κάτω από τα 1500 μ. και δεν υπάρχουν νέφη σωρειτομελανίτες.

METAR: HSSS 120000Z 34009KT CAVOK 20/00 Q1017 NOSIG

Χρόνος: 03:21 (00:21 UTC)

Πρόγνωση Καιρού

Η αναφορά έγινε 1 ώρα και 21 λεπτά πριν, στις 23:00 UTC
Η πρόγνωση ισχύει από τις 12 στις 00 UTC έως τις 13 στις 06 UTC
Άνεμος 8 kt από Β/BΔ με ριπές μέχρι 18 kt
Ορατότητα 10 χλμ και άνω
Δεν υπάρχουν νέφη με βάση κάτω από τα 1500 μ. και δεν υπάρχουν νέφη σωρειτομελανίτες.
Προσωρινά
από 12 στις 04 UTC έως τις 12 στις 09 UTC
Ορατότητα: 6000 μ

TAF: HSSS 112300Z 1200/1306 34008G18KT CAVOK TEMPO 1204/1209 6000 NSC

Μετεωρολογικές αναφορές και προγνώσεις για περισσότερα από 4000 αεροδρόμια (δελτία METAR και TAF).

Οι διαθέσιμοι σταθμοί απεικονίζονται στο χάρτη με κίτρινες και κόκκινες κουκκίδες.

Μετακινήστε το ποντίκι πάνω από τις κουκκίδες για να δείτε το όνομα του σταθμού.

Στη συνέχεια, κάντε κλικ για να δείτε τις μετεωρολογικές αναφορές και τις προγνώσεις καιρού.

Για να αλλάξετε το χάρτη: κάντε κλικ στα πράσινα κουμπιά με τον μαύρο σταυρό για να ζουμάρετε, στο πράσινο κουμπί με την παύλα για να αφαιρέσετε το ζουμ ή στα πράσινα βέλη για να αντιπαραβάλλετε χάρτες.


METAR-TAF: